sensor_id;sensor_type;location;lat;lon;timestamp;P1;durP1;ratioP1;P2;durP2;ratioP2
5225;SDS011;2632;51.666;7.146;2022-10-23T00:00:42;5.70;;;4.47;;
5225;SDS011;2632;51.666;7.146;2022-10-23T00:03:09;6.87;;;3.83;;
5225;SDS011;2632;51.666;7.146;2022-10-23T00:05:37;4.53;;;3.47;;
5225;SDS011;2632;51.666;7.146;2022-10-23T00:08:06;7.37;;;3.97;;
5225;SDS011;2632;51.666;7.146;2022-10-23T00:10:32;6.40;;;3.77;;
5225;SDS011;2632;51.666;7.146;2022-10-23T00:12:59;9.43;;;4.03;;
5225;SDS011;2632;51.666;7.146;2022-10-23T00:15:26;6.40;;;4.30;;
5225;SDS011;2632;51.666;7.146;2022-10-23T00:17:52;5.70;;;3.40;;
5225;SDS011;2632;51.666;7.146;2022-10-23T00:20:19;7.10;;;3.70;;
5225;SDS011;2632;51.666;7.146;2022-10-23T00:22:46;5.03;;;3.50;;
5225;SDS011;2632;51.666;7.146;2022-10-23T00:25:13;5.60;;;4.27;;
5225;SDS011;2632;51.666;7.146;2022-10-23T00:27:41;5.23;;;3.60;;
5225;SDS011;2632;51.666;7.146;2022-10-23T00:30:09;5.40;;;3.90;;
5225;SDS011;2632;51.666;7.146;2022-10-23T00:32:36;4.63;;;3.57;;
5225;SDS011;2632;51.666;7.146;2022-10-23T00:35:03;7.13;;;4.00;;
5225;SDS011;2632;51.666;7.146;2022-10-23T00:37:30;3.73;;;2.97;;
5225;SDS011;2632;51.666;7.146;2022-10-23T00:39:56;5.30;;;3.73;;
5225;SDS011;2632;51.666;7.146;2022-10-23T00:42:23;6.20;;;3.63;;
5225;SDS011;2632;51.666;7.146;2022-10-23T00:47:16;5.10;;;3.70;;
5225;SDS011;2632;51.666;7.146;2022-10-23T00:49:43;5.10;;;3.90;;
5225;SDS011;2632;51.666;7.146;2022-10-23T00:52:11;5.90;;;4.50;;
5225;SDS011;2632;51.666;7.146;2022-10-23T00:54:39;5.47;;;3.40;;
5225;SDS011;2632;51.666;7.146;2022-10-23T00:57:11;5.50;;;3.50;;
5225;SDS011;2632;51.666;7.146;2022-10-23T00:59:39;5.73;;;3.77;;
5225;SDS011;2632;51.666;7.146;2022-10-23T01:02:06;5.90;;;3.57;;
5225;SDS011;2632;51.666;7.146;2022-10-23T01:04:33;6.17;;;3.80;;
5225;SDS011;2632;51.666;7.146;2022-10-23T01:09:36;6.50;;;3.60;;
5225;SDS011;2632;51.666;7.146;2022-10-23T01:17:47;5.27;;;3.73;;
5225;SDS011;2632;51.666;7.146;2022-10-23T01:20:31;6.00;;;2.93;;
5225;SDS011;2632;51.666;7.146;2022-10-23T01:28:59;4.90;;;3.77;;
5225;SDS011;2632;51.666;7.146;2022-10-23T01:31:30;5.50;;;3.70;;
5225;SDS011;2632;51.666;7.146;2022-10-23T01:34:04;5.90;;;3.40;;
5225;SDS011;2632;51.666;7.146;2022-10-23T01:36:37;5.33;;;3.50;;
5225;SDS011;2632;51.666;7.146;2022-10-23T01:39:13;4.83;;;3.43;;
5225;SDS011;2632;51.666;7.146;2022-10-23T01:41:45;5.57;;;3.63;;
5225;SDS011;2632;51.666;7.146;2022-10-23T01:44:16;4.47;;;3.10;;
5225;SDS011;2632;51.666;7.146;2022-10-23T01:46:51;4.27;;;3.23;;
5225;SDS011;2632;51.666;7.146;2022-10-23T01:49:19;4.50;;;3.30;;
5225;SDS011;2632;51.666;7.146;2022-10-23T01:51:49;6.00;;;3.83;;
5225;SDS011;2632;51.666;7.146;2022-10-23T01:54:24;6.10;;;3.40;;
5225;SDS011;2632;51.666;7.146;2022-10-23T01:56:54;3.50;;;3.10;;
5225;SDS011;2632;51.666;7.146;2022-10-23T01:59:28;3.90;;;3.07;;
5225;SDS011;2632;51.666;7.146;2022-10-23T02:02:00;7.57;;;4.07;;
5225;SDS011;2632;51.666;7.146;2022-10-23T02:04:33;4.10;;;3.33;;
5225;SDS011;2632;51.666;7.146;2022-10-23T02:07:03;5.10;;;3.77;;
5225;SDS011;2632;51.666;7.146;2022-10-23T02:09:30;4.43;;;3.40;;
5225;SDS011;2632;51.666;7.146;2022-10-23T02:11:59;4.70;;;3.43;;
5225;SDS011;2632;51.666;7.146;2022-10-23T02:14:36;5.30;;;3.27;;
5225;SDS011;2632;51.666;7.146;2022-10-23T02:17:12;6.23;;;3.43;;
5225;SDS011;2632;51.666;7.146;2022-10-23T02:19:49;10.30;;;3.50;;
5225;SDS011;2632;51.666;7.146;2022-10-23T02:22:29;5.27;;;3.27;;
5225;SDS011;2632;51.666;7.146;2022-10-23T02:27:44;6.10;;;3.57;;
5225;SDS011;2632;51.666;7.146;2022-10-23T02:30:14;5.83;;;3.50;;
5225;SDS011;2632;51.666;7.146;2022-10-23T02:32:44;5.57;;;3.20;;
5225;SDS011;2632;51.666;7.146;2022-10-23T02:35:16;4.57;;;3.20;;
5225;SDS011;2632;51.666;7.146;2022-10-23T02:37:54;6.50;;;3.70;;
5225;SDS011;2632;51.666;7.146;2022-10-23T02:40:23;5.13;;;3.50;;
5225;SDS011;2632;51.666;7.146;2022-10-23T02:43:13;4.53;;;3.50;;
5225;SDS011;2632;51.666;7.146;2022-10-23T02:45:50;6.47;;;3.53;;
5225;SDS011;2632;51.666;7.146;2022-10-23T02:48:27;4.97;;;3.33;;
5225;SDS011;2632;51.666;7.146;2022-10-23T02:51:19;4.50;;;3.60;;
5225;SDS011;2632;51.666;7.146;2022-10-23T02:54:09;5.47;;;3.33;;
5225;SDS011;2632;51.666;7.146;2022-10-23T02:57:10;3.90;;;3.33;;
5225;SDS011;2632;51.666;7.146;2022-10-23T03:00:24;5.23;;;3.60;;
5225;SDS011;2632;51.666;7.146;2022-10-23T03:02:40;4.83;;;3.40;;
5225;SDS011;2632;51.666;7.146;2022-10-23T03:05:13;3.47;;;2.70;;
5225;SDS011;2632;51.666;7.146;2022-10-23T03:07:44;5.50;;;3.30;;
5225;SDS011;2632;51.666;7.146;2022-10-23T03:10:12;3.33;;;3.03;;
5225;SDS011;2632;51.666;7.146;2022-10-23T03:12:39;3.90;;;2.93;;
5225;SDS011;2632;51.666;7.146;2022-10-23T03:15:07;4.77;;;2.80;;
5225;SDS011;2632;51.666;7.146;2022-10-23T03:17:34;3.73;;;2.97;;
5225;SDS011;2632;51.666;7.146;2022-10-23T03:20:00;5.33;;;3.00;;
5225;SDS011;2632;51.666;7.146;2022-10-23T03:22:27;6.00;;;3.47;;
5225;SDS011;2632;51.666;7.146;2022-10-23T03:24:53;5.23;;;3.20;;
5225;SDS011;2632;51.666;7.146;2022-10-23T03:27:20;3.83;;;3.40;;
5225;SDS011;2632;51.666;7.146;2022-10-23T03:29:46;5.67;;;3.00;;
5225;SDS011;2632;51.666;7.146;2022-10-23T03:32:13;3.77;;;3.30;;
5225;SDS011;2632;51.666;7.146;2022-10-23T03:34:40;4.17;;;3.13;;
5225;SDS011;2632;51.666;7.146;2022-10-23T03:37:07;3.20;;;2.73;;
5225;SDS011;2632;51.666;7.146;2022-10-23T03:39:34;3.33;;;2.83;;
5225;SDS011;2632;51.666;7.146;2022-10-23T03:42:01;4.73;;;3.50;;
5225;SDS011;2632;51.666;7.146;2022-10-23T03:44:27;3.87;;;3.13;;
5225;SDS011;2632;51.666;7.146;2022-10-23T03:46:56;4.10;;;2.87;;
5225;SDS011;2632;51.666;7.146;2022-10-23T03:49:23;4.87;;;2.83;;
5225;SDS011;2632;51.666;7.146;2022-10-23T03:51:49;5.70;;;3.40;;
5225;SDS011;2632;51.666;7.146;2022-10-23T03:54:18;4.27;;;2.80;;
5225;SDS011;2632;51.666;7.146;2022-10-23T03:56:47;5.03;;;3.07;;
5225;SDS011;2632;51.666;7.146;2022-10-23T03:59:16;4.80;;;2.90;;
5225;SDS011;2632;51.666;7.146;2022-10-23T04:01:43;5.27;;;3.30;;
5225;SDS011;2632;51.666;7.146;2022-10-23T04:04:10;5.70;;;3.07;;
5225;SDS011;2632;51.666;7.146;2022-10-23T04:06:37;4.13;;;3.03;;
5225;SDS011;2632;51.666;7.146;2022-10-23T04:09:04;5.50;;;3.30;;
5225;SDS011;2632;51.666;7.146;2022-10-23T04:11:30;3.53;;;2.80;;
5225;SDS011;2632;51.666;7.146;2022-10-23T04:13:57;5.53;;;3.27;;
5225;SDS011;2632;51.666;7.146;2022-10-23T04:16:24;5.27;;;3.10;;
5225;SDS011;2632;51.666;7.146;2022-10-23T04:18:51;3.87;;;3.20;;
5225;SDS011;2632;51.666;7.146;2022-10-23T04:21:18;6.77;;;3.50;;
5225;SDS011;2632;51.666;7.146;2022-10-23T04:23:45;6.43;;;3.37;;
5225;SDS011;2632;51.666;7.146;2022-10-23T04:26:11;7.77;;;3.10;;
5225;SDS011;2632;51.666;7.146;2022-10-23T04:28:38;3.13;;;2.83;;
5225;SDS011;2632;51.666;7.146;2022-10-23T04:31:05;4.13;;;3.03;;
5225;SDS011;2632;51.666;7.146;2022-10-23T04:33:32;3.50;;;3.00;;
5225;SDS011;2632;51.666;7.146;2022-10-23T04:35:58;4.20;;;2.93;;
5225;SDS011;2632;51.666;7.146;2022-10-23T04:38:25;3.50;;;2.70;;
5225;SDS011;2632;51.666;7.146;2022-10-23T04:40:52;3.27;;;2.97;;
5225;SDS011;2632;51.666;7.146;2022-10-23T04:43:18;4.70;;;2.80;;
5225;SDS011;2632;51.666;7.146;2022-10-23T04:45:45;3.97;;;2.87;;
5225;SDS011;2632;51.666;7.146;2022-10-23T04:48:13;3.73;;;2.77;;
5225;SDS011;2632;51.666;7.146;2022-10-23T04:50:39;4.90;;;3.17;;
5225;SDS011;2632;51.666;7.146;2022-10-23T04:53:07;3.30;;;2.83;;
5225;SDS011;2632;51.666;7.146;2022-10-23T04:55:34;4.77;;;2.60;;
5225;SDS011;2632;51.666;7.146;2022-10-23T04:58:00;3.50;;;2.63;;
5225;SDS011;2632;51.666;7.146;2022-10-23T05:00:27;5.13;;;2.93;;
5225;SDS011;2632;51.666;7.146;2022-10-23T05:02:53;3.60;;;2.33;;
5225;SDS011;2632;51.666;7.146;2022-10-23T05:05:20;4.03;;;2.63;;
5225;SDS011;2632;51.666;7.146;2022-10-23T05:07:46;5.83;;;3.17;;
5225;SDS011;2632;51.666;7.146;2022-10-23T05:10:13;3.70;;;2.60;;
5225;SDS011;2632;51.666;7.146;2022-10-23T05:12:39;3.20;;;2.57;;
5225;SDS011;2632;51.666;7.146;2022-10-23T05:15:06;4.70;;;3.00;;
5225;SDS011;2632;51.666;7.146;2022-10-23T05:17:34;5.00;;;3.20;;
5225;SDS011;2632;51.666;7.146;2022-10-23T05:20:04;4.67;;;3.10;;
5225;SDS011;2632;51.666;7.146;2022-10-23T05:22:34;4.60;;;2.90;;
5225;SDS011;2632;51.666;7.146;2022-10-23T05:25:04;3.20;;;2.43;;
5225;SDS011;2632;51.666;7.146;2022-10-23T05:27:30;3.33;;;2.80;;
5225;SDS011;2632;51.666;7.146;2022-10-23T05:29:57;12.50;;;3.00;;
5225;SDS011;2632;51.666;7.146;2022-10-23T05:32:24;6.50;;;2.93;;
5225;SDS011;2632;51.666;7.146;2022-10-23T05:34:54;5.93;;;3.07;;
5225;SDS011;2632;51.666;7.146;2022-10-23T05:37:21;8.10;;;2.80;;
5225;SDS011;2632;51.666;7.146;2022-10-23T05:39:48;3.93;;;2.60;;
5225;SDS011;2632;51.666;7.146;2022-10-23T05:42:14;3.13;;;2.63;;
5225;SDS011;2632;51.666;7.146;2022-10-23T05:44:41;3.53;;;2.73;;
5225;SDS011;2632;51.666;7.146;2022-10-23T05:47:07;5.20;;;2.43;;
5225;SDS011;2632;51.666;7.146;2022-10-23T05:49:34;7.33;;;3.33;;
5225;SDS011;2632;51.666;7.146;2022-10-23T05:52:01;4.60;;;2.80;;
5225;SDS011;2632;51.666;7.146;2022-10-23T05:54:27;20.57;;;3.93;;
5225;SDS011;2632;51.666;7.146;2022-10-23T05:56:54;6.27;;;3.20;;
5225;SDS011;2632;51.666;7.146;2022-10-23T05:59:21;3.87;;;2.60;;
5225;SDS011;2632;51.666;7.146;2022-10-23T06:01:48;3.63;;;2.60;;
5225;SDS011;2632;51.666;7.146;2022-10-23T06:04:15;4.80;;;2.83;;
5225;SDS011;2632;51.666;7.146;2022-10-23T06:06:43;8.03;;;2.80;;
5225;SDS011;2632;51.666;7.146;2022-10-23T06:09:11;4.03;;;2.60;;
5225;SDS011;2632;51.666;7.146;2022-10-23T06:11:38;6.80;;;2.87;;
5225;SDS011;2632;51.666;7.146;2022-10-23T06:14:05;5.27;;;2.70;;
5225;SDS011;2632;51.666;7.146;2022-10-23T06:16:32;4.10;;;2.97;;
5225;SDS011;2632;51.666;7.146;2022-10-23T06:18:58;3.70;;;1.90;;
5225;SDS011;2632;51.666;7.146;2022-10-23T06:21:25;3.77;;;2.07;;
5225;SDS011;2632;51.666;7.146;2022-10-23T06:23:52;6.47;;;2.20;;
5225;SDS011;2632;51.666;7.146;2022-10-23T06:26:19;4.80;;;2.20;;
5225;SDS011;2632;51.666;7.146;2022-10-23T06:28:46;6.73;;;2.20;;
5225;SDS011;2632;51.666;7.146;2022-10-23T06:31:13;4.60;;;2.33;;
5225;SDS011;2632;51.666;7.146;2022-10-23T06:33:41;2.20;;;1.90;;
5225;SDS011;2632;51.666;7.146;2022-10-23T06:36:07;2.87;;;2.30;;
5225;SDS011;2632;51.666;7.146;2022-10-23T06:38:36;2.40;;;2.20;;
5225;SDS011;2632;51.666;7.146;2022-10-23T06:41:06;4.83;;;2.23;;
5225;SDS011;2632;51.666;7.146;2022-10-23T06:43:37;9.17;;;2.43;;
5225;SDS011;2632;51.666;7.146;2022-10-23T06:46:03;3.40;;;2.20;;
5225;SDS011;2632;51.666;7.146;2022-10-23T06:48:31;3.63;;;2.03;;
5225;SDS011;2632;51.666;7.146;2022-10-23T06:50:58;5.13;;;2.37;;
5225;SDS011;2632;51.666;7.146;2022-10-23T06:53:29;6.33;;;2.10;;
5225;SDS011;2632;51.666;7.146;2022-10-23T06:55:59;3.63;;;2.33;;
5225;SDS011;2632;51.666;7.146;2022-10-23T06:58:26;4.77;;;2.50;;
5225;SDS011;2632;51.666;7.146;2022-10-23T07:00:53;5.80;;;2.37;;
5225;SDS011;2632;51.666;7.146;2022-10-23T07:03:20;6.30;;;2.50;;
5225;SDS011;2632;51.666;7.146;2022-10-23T07:05:47;4.03;;;2.13;;
5225;SDS011;2632;51.666;7.146;2022-10-23T07:08:14;3.27;;;2.20;;
5225;SDS011;2632;51.666;7.146;2022-10-23T07:10:40;4.47;;;2.37;;
5225;SDS011;2632;51.666;7.146;2022-10-23T07:13:08;4.50;;;2.30;;
5225;SDS011;2632;51.666;7.146;2022-10-23T07:15:35;8.13;;;3.10;;
5225;SDS011;2632;51.666;7.146;2022-10-23T07:18:02;9.70;;;2.30;;
5225;SDS011;2632;51.666;7.146;2022-10-23T07:20:30;2.87;;;2.43;;
5225;SDS011;2632;51.666;7.146;2022-10-23T07:22:56;2.50;;;1.90;;
5225;SDS011;2632;51.666;7.146;2022-10-23T07:25:24;7.20;;;1.97;;
5225;SDS011;2632;51.666;7.146;2022-10-23T07:27:52;3.40;;;1.97;;
5225;SDS011;2632;51.666;7.146;2022-10-23T07:30:20;6.30;;;2.10;;
5225;SDS011;2632;51.666;7.146;2022-10-23T07:32:47;7.53;;;2.93;;
5225;SDS011;2632;51.666;7.146;2022-10-23T07:35:14;3.03;;;2.20;;
5225;SDS011;2632;51.666;7.146;2022-10-23T07:37:40;5.33;;;2.30;;
5225;SDS011;2632;51.666;7.146;2022-10-23T07:40:08;4.87;;;2.20;;
5225;SDS011;2632;51.666;7.146;2022-10-23T07:42:35;7.93;;;2.27;;
5225;SDS011;2632;51.666;7.146;2022-10-23T07:45:01;5.63;;;2.50;;
5225;SDS011;2632;51.666;7.146;2022-10-23T07:47:29;4.83;;;2.07;;
5225;SDS011;2632;51.666;7.146;2022-10-23T07:49:57;3.77;;;2.27;;
5225;SDS011;2632;51.666;7.146;2022-10-23T07:52:24;8.53;;;1.97;;
5225;SDS011;2632;51.666;7.146;2022-10-23T07:54:51;3.70;;;2.33;;
5225;SDS011;2632;51.666;7.146;2022-10-23T07:57:18;2.37;;;1.97;;
5225;SDS011;2632;51.666;7.146;2022-10-23T07:59:45;2.63;;;1.97;;
5225;SDS011;2632;51.666;7.146;2022-10-23T08:02:12;3.97;;;2.57;;
5225;SDS011;2632;51.666;7.146;2022-10-23T08:04:40;3.70;;;2.50;;
5225;SDS011;2632;51.666;7.146;2022-10-23T08:07:07;2.47;;;1.93;;
5225;SDS011;2632;51.666;7.146;2022-10-23T08:09:33;3.03;;;2.20;;
5225;SDS011;2632;51.666;7.146;2022-10-23T08:12:01;6.00;;;2.37;;
5225;SDS011;2632;51.666;7.146;2022-10-23T08:14:28;3.33;;;2.00;;
5225;SDS011;2632;51.666;7.146;2022-10-23T08:16:54;4.80;;;1.83;;
5225;SDS011;2632;51.666;7.146;2022-10-23T08:19:21;3.00;;;2.00;;
5225;SDS011;2632;51.666;7.146;2022-10-23T08:21:47;3.27;;;1.83;;
5225;SDS011;2632;51.666;7.146;2022-10-23T08:24:14;4.00;;;2.10;;
5225;SDS011;2632;51.666;7.146;2022-10-23T08:26:41;1.67;;;1.57;;
5225;SDS011;2632;51.666;7.146;2022-10-23T08:29:08;2.33;;;1.60;;
5225;SDS011;2632;51.666;7.146;2022-10-23T08:31:34;3.20;;;1.87;;
5225;SDS011;2632;51.666;7.146;2022-10-23T08:34:01;3.83;;;2.30;;
5225;SDS011;2632;51.666;7.146;2022-10-23T08:36:28;2.90;;;2.20;;
5225;SDS011;2632;51.666;7.146;2022-10-23T08:38:55;2.13;;;1.80;;
5225;SDS011;2632;51.666;7.146;2022-10-23T08:41:27;2.50;;;2.00;;
5225;SDS011;2632;51.666;7.146;2022-10-23T08:47:01;2.90;;;1.47;;
5225;SDS011;2632;51.666;7.146;2022-10-23T08:49:39;2.00;;;1.80;;
5225;SDS011;2632;51.666;7.146;2022-10-23T08:52:38;5.63;;;2.93;;
5225;SDS011;2632;51.666;7.146;2022-10-23T09:00:26;1.87;;;1.77;;
5225;SDS011;2632;51.666;7.146;2022-10-23T09:02:53;3.03;;;2.13;;
5225;SDS011;2632;51.666;7.146;2022-10-23T09:05:24;2.77;;;2.00;;
5225;SDS011;2632;51.666;7.146;2022-10-23T09:08:15;2.43;;;1.93;;
5225;SDS011;2632;51.666;7.146;2022-10-23T09:16:35;3.30;;;1.93;;
5225;SDS011;2632;51.666;7.146;2022-10-23T09:19:26;4.90;;;1.83;;
5225;SDS011;2632;51.666;7.146;2022-10-23T09:21:53;2.47;;;2.00;;
5225;SDS011;2632;51.666;7.146;2022-10-23T09:24:22;2.40;;;2.10;;
5225;SDS011;2632;51.666;7.146;2022-10-23T09:26:51;3.90;;;1.80;;
5225;SDS011;2632;51.666;7.146;2022-10-23T09:29:23;3.90;;;2.27;;
5225;SDS011;2632;51.666;7.146;2022-10-23T09:31:53;1.97;;;1.87;;
5225;SDS011;2632;51.666;7.146;2022-10-23T09:34:23;3.07;;;1.90;;
5225;SDS011;2632;51.666;7.146;2022-10-23T09:36:55;2.03;;;1.60;;
5225;SDS011;2632;51.666;7.146;2022-10-23T09:39:34;3.20;;;1.83;;
5225;SDS011;2632;51.666;7.146;2022-10-23T09:42:12;5.10;;;3.00;;
5225;SDS011;2632;51.666;7.146;2022-10-23T09:44:52;2.10;;;1.67;;
5225;SDS011;2632;51.666;7.146;2022-10-23T09:47:20;2.70;;;2.37;;
5225;SDS011;2632;51.666;7.146;2022-10-23T09:49:52;3.70;;;2.17;;
5225;SDS011;2632;51.666;7.146;2022-10-23T09:52:22;3.70;;;2.03;;
5225;SDS011;2632;51.666;7.146;2022-10-23T09:55:00;2.03;;;1.80;;
5225;SDS011;2632;51.666;7.146;2022-10-23T09:57:39;3.63;;;1.80;;
5225;SDS011;2632;51.666;7.146;2022-10-23T10:03:00;3.17;;;1.83;;
5225;SDS011;2632;51.666;7.146;2022-10-23T10:10:53;3.13;;;1.93;;
5225;SDS011;2632;51.666;7.146;2022-10-23T10:21:35;2.07;;;1.50;;
5225;SDS011;2632;51.666;7.146;2022-10-23T10:24:19;2.83;;;1.90;;
5225;SDS011;2632;51.666;7.146;2022-10-23T10:26:59;3.10;;;1.90;;
5225;SDS011;2632;51.666;7.146;2022-10-23T10:35:02;2.60;;;1.80;;
5225;SDS011;2632;51.666;7.146;2022-10-23T10:40:25;4.67;;;1.77;;
5225;SDS011;2632;51.666;7.146;2022-10-23T10:43:04;3.17;;;1.80;;
5225;SDS011;2632;51.666;7.146;2022-10-23T10:45:51;2.30;;;1.70;;
5225;SDS011;2632;51.666;7.146;2022-10-23T10:48:46;2.37;;;1.90;;
5225;SDS011;2632;51.666;7.146;2022-10-23T10:54:20;2.13;;;1.83;;
5225;SDS011;2632;51.666;7.146;2022-10-23T10:57:12;3.30;;;1.83;;
5225;SDS011;2632;51.666;7.146;2022-10-23T10:59:46;2.50;;;1.63;;
5225;SDS011;2632;51.666;7.146;2022-10-23T11:02:25;2.33;;;1.83;;
5225;SDS011;2632;51.666;7.146;2022-10-23T11:07:53;2.60;;;1.70;;
5225;SDS011;2632;51.666;7.146;2022-10-23T11:10:23;2.60;;;1.37;;
5225;SDS011;2632;51.666;7.146;2022-10-23T11:12:50;2.60;;;1.70;;
5225;SDS011;2632;51.666;7.146;2022-10-23T11:15:20;1.83;;;1.30;;
5225;SDS011;2632;51.666;7.146;2022-10-23T11:18:04;1.93;;;1.70;;
5225;SDS011;2632;51.666;7.146;2022-10-23T11:20:42;2.70;;;1.87;;
5225;SDS011;2632;51.666;7.146;2022-10-23T11:26:18;1.73;;;1.60;;
5225;SDS011;2632;51.666;7.146;2022-10-23T11:29:09;1.33;;;1.23;;
5225;SDS011;2632;51.666;7.146;2022-10-23T11:31:58;1.67;;;1.47;;
5225;SDS011;2632;51.666;7.146;2022-10-23T11:34:47;2.30;;;1.63;;
5225;SDS011;2632;51.666;7.146;2022-10-23T11:37:37;2.33;;;1.80;;
5225;SDS011;2632;51.666;7.146;2022-10-23T11:53:22;2.17;;;1.60;;
5225;SDS011;2632;51.666;7.146;2022-10-23T11:56:00;3.73;;;1.60;;
5225;SDS011;2632;51.666;7.146;2022-10-23T11:58:53;1.83;;;1.50;;
5225;SDS011;2632;51.666;7.146;2022-10-23T12:01:27;1.80;;;1.60;;
5225;SDS011;2632;51.666;7.146;2022-10-23T12:04:01;1.70;;;1.60;;
5225;SDS011;2632;51.666;7.146;2022-10-23T12:06:42;1.60;;;1.50;;
5225;SDS011;2632;51.666;7.146;2022-10-23T12:09:36;3.37;;;1.70;;
5225;SDS011;2632;51.666;7.146;2022-10-23T12:14:43;2.23;;;1.50;;
5225;SDS011;2632;51.666;7.146;2022-10-23T12:26:09;1.50;;;1.40;;
5225;SDS011;2632;51.666;7.146;2022-10-23T12:28:22;2.50;;;1.60;;
5225;SDS011;2632;51.666;7.146;2022-10-23T12:31:25;2.13;;;1.37;;
5225;SDS011;2632;51.666;7.146;2022-10-23T12:39:57;1.73;;;1.63;;
5225;SDS011;2632;51.666;7.146;2022-10-23T12:42:25;2.00;;;1.70;;
5225;SDS011;2632;51.666;7.146;2022-10-23T12:44:57;2.33;;;1.63;;
5225;SDS011;2632;51.666;7.146;2022-10-23T12:47:29;2.63;;;1.43;;
5225;SDS011;2632;51.666;7.146;2022-10-23T12:49:56;3.17;;;1.50;;
5225;SDS011;2632;51.666;7.146;2022-10-23T12:52:23;4.80;;;1.60;;
5225;SDS011;2632;51.666;7.146;2022-10-23T12:54:50;1.67;;;1.20;;
5225;SDS011;2632;51.666;7.146;2022-10-23T12:57:18;2.40;;;1.30;;
5225;SDS011;2632;51.666;7.146;2022-10-23T12:59:52;3.03;;;1.70;;
5225;SDS011;2632;51.666;7.146;2022-10-23T13:02:26;1.60;;;1.50;;
5225;SDS011;2632;51.666;7.146;2022-10-23T13:04:56;2.23;;;1.60;;
5225;SDS011;2632;51.666;7.146;2022-10-23T13:07:26;2.00;;;1.60;;
5225;SDS011;2632;51.666;7.146;2022-10-23T13:09:55;2.60;;;1.60;;
5225;SDS011;2632;51.666;7.146;2022-10-23T13:12:24;1.57;;;1.37;;
5225;SDS011;2632;51.666;7.146;2022-10-23T13:15:14;1.97;;;1.40;;
5225;SDS011;2632;51.666;7.146;2022-10-23T13:20:18;2.00;;;1.80;;
5225;SDS011;2632;51.666;7.146;2022-10-23T13:22:48;2.07;;;1.67;;
5225;SDS011;2632;51.666;7.146;2022-10-23T13:25:29;3.77;;;1.57;;
5225;SDS011;2632;51.666;7.146;2022-10-23T13:28:02;1.63;;;1.40;;
5225;SDS011;2632;51.666;7.146;2022-10-23T13:30:34;2.10;;;1.50;;
5225;SDS011;2632;51.666;7.146;2022-10-23T13:33:17;1.90;;;1.50;;
5225;SDS011;2632;51.666;7.146;2022-10-23T13:35:56;2.40;;;1.67;;
5225;SDS011;2632;51.666;7.146;2022-10-23T13:38:32;1.43;;;1.33;;
5225;SDS011;2632;51.666;7.146;2022-10-23T13:41:01;1.77;;;1.47;;
5225;SDS011;2632;51.666;7.146;2022-10-23T13:43:30;2.00;;;1.50;;
5225;SDS011;2632;51.666;7.146;2022-10-23T13:45:58;1.53;;;1.40;;
5225;SDS011;2632;51.666;7.146;2022-10-23T13:48:25;2.50;;;1.60;;
5225;SDS011;2632;51.666;7.146;2022-10-23T13:50:52;2.27;;;1.57;;
5225;SDS011;2632;51.666;7.146;2022-10-23T13:53:19;2.30;;;1.50;;
5225;SDS011;2632;51.666;7.146;2022-10-23T13:55:47;1.77;;;1.63;;
5225;SDS011;2632;51.666;7.146;2022-10-23T13:58:21;1.50;;;1.40;;
5225;SDS011;2632;51.666;7.146;2022-10-23T14:00:48;1.70;;;1.50;;
5225;SDS011;2632;51.666;7.146;2022-10-23T14:03:15;2.73;;;1.50;;
5225;SDS011;2632;51.666;7.146;2022-10-23T14:05:43;1.93;;;1.60;;
5225;SDS011;2632;51.666;7.146;2022-10-23T14:08:10;2.80;;;1.50;;
5225;SDS011;2632;51.666;7.146;2022-10-23T14:10:36;1.40;;;1.30;;
5225;SDS011;2632;51.666;7.146;2022-10-23T14:13:03;2.13;;;1.63;;
5225;SDS011;2632;51.666;7.146;2022-10-23T14:15:29;1.47;;;1.30;;
5225;SDS011;2632;51.666;7.146;2022-10-23T14:17:56;2.07;;;1.70;;
5225;SDS011;2632;51.666;7.146;2022-10-23T14:20:26;4.37;;;1.67;;
5225;SDS011;2632;51.666;7.146;2022-10-23T14:22:53;1.53;;;1.23;;
5225;SDS011;2632;51.666;7.146;2022-10-23T14:25:19;1.47;;;1.20;;
5225;SDS011;2632;51.666;7.146;2022-10-23T14:27:47;1.80;;;1.30;;
5225;SDS011;2632;51.666;7.146;2022-10-23T14:30:14;1.50;;;1.40;;
5225;SDS011;2632;51.666;7.146;2022-10-23T14:32:40;1.63;;;1.40;;
5225;SDS011;2632;51.666;7.146;2022-10-23T14:35:08;1.40;;;1.30;;
5225;SDS011;2632;51.666;7.146;2022-10-23T14:37:34;1.37;;;1.20;;
5225;SDS011;2632;51.666;7.146;2022-10-23T14:40:01;2.27;;;1.43;;
5225;SDS011;2632;51.666;7.146;2022-10-23T14:42:28;1.33;;;1.13;;
5225;SDS011;2632;51.666;7.146;2022-10-23T14:44:59;1.80;;;1.47;;
5225;SDS011;2632;51.666;7.146;2022-10-23T14:47:27;1.27;;;1.00;;
5225;SDS011;2632;51.666;7.146;2022-10-23T14:49:54;1.30;;;1.20;;
5225;SDS011;2632;51.666;7.146;2022-10-23T14:52:21;1.50;;;1.13;;
5225;SDS011;2632;51.666;7.146;2022-10-23T14:54:51;2.00;;;1.50;;
5225;SDS011;2632;51.666;7.146;2022-10-23T14:57:19;4.77;;;1.30;;
5225;SDS011;2632;51.666;7.146;2022-10-23T14:59:47;2.43;;;2.10;;
5225;SDS011;2632;51.666;7.146;2022-10-23T15:02:15;6.70;;;1.87;;
5225;SDS011;2632;51.666;7.146;2022-10-23T15:04:42;2.97;;;2.00;;
5225;SDS011;2632;51.666;7.146;2022-10-23T15:07:08;2.17;;;1.80;;
5225;SDS011;2632;51.666;7.146;2022-10-23T15:09:35;4.20;;;2.30;;
5225;SDS011;2632;51.666;7.146;2022-10-23T15:12:02;4.00;;;2.27;;
5225;SDS011;2632;51.666;7.146;2022-10-23T15:14:29;5.27;;;1.87;;
5225;SDS011;2632;51.666;7.146;2022-10-23T15:16:56;4.60;;;2.40;;
5225;SDS011;2632;51.666;7.146;2022-10-23T15:19:22;4.60;;;2.20;;
5225;SDS011;2632;51.666;7.146;2022-10-23T15:21:49;3.73;;;2.10;;
5225;SDS011;2632;51.666;7.146;2022-10-23T15:24:17;11.43;;;1.90;;
5225;SDS011;2632;51.666;7.146;2022-10-23T15:26:46;4.47;;;2.23;;
5225;SDS011;2632;51.666;7.146;2022-10-23T15:29:13;3.70;;;1.97;;
5225;SDS011;2632;51.666;7.146;2022-10-23T15:31:41;7.20;;;2.50;;
5225;SDS011;2632;51.666;7.146;2022-10-23T15:34:20;4.10;;;2.20;;
5225;SDS011;2632;51.666;7.146;2022-10-23T15:36:48;3.40;;;1.80;;
5225;SDS011;2632;51.666;7.146;2022-10-23T15:39:16;7.03;;;3.00;;
5225;SDS011;2632;51.666;7.146;2022-10-23T15:41:45;2.90;;;1.93;;
5225;SDS011;2632;51.666;7.146;2022-10-23T15:44:14;2.90;;;1.93;;
5225;SDS011;2632;51.666;7.146;2022-10-23T15:46:41;4.27;;;1.90;;
5225;SDS011;2632;51.666;7.146;2022-10-23T15:49:08;3.60;;;2.00;;
5225;SDS011;2632;51.666;7.146;2022-10-23T15:51:35;3.93;;;2.17;;
5225;SDS011;2632;51.666;7.146;2022-10-23T15:54:07;3.77;;;2.33;;
5225;SDS011;2632;51.666;7.146;2022-10-23T15:56:35;2.57;;;1.70;;
5225;SDS011;2632;51.666;7.146;2022-10-23T15:59:02;3.93;;;1.70;;
5225;SDS011;2632;51.666;7.146;2022-10-23T16:01:29;4.67;;;1.60;;
5225;SDS011;2632;51.666;7.146;2022-10-23T16:03:55;2.60;;;2.00;;
5225;SDS011;2632;51.666;7.146;2022-10-23T16:06:22;19.33;;;2.47;;
5225;SDS011;2632;51.666;7.146;2022-10-23T16:08:48;6.60;;;1.63;;
5225;SDS011;2632;51.666;7.146;2022-10-23T16:11:20;4.23;;;2.13;;
5225;SDS011;2632;51.666;7.146;2022-10-23T16:13:48;4.73;;;2.30;;
5225;SDS011;2632;51.666;7.146;2022-10-23T16:16:15;4.30;;;1.97;;
5225;SDS011;2632;51.666;7.146;2022-10-23T16:18:42;5.67;;;2.13;;
5225;SDS011;2632;51.666;7.146;2022-10-23T16:21:20;4.63;;;2.20;;
5225;SDS011;2632;51.666;7.146;2022-10-23T16:23:49;11.17;;;2.77;;
5225;SDS011;2632;51.666;7.146;2022-10-23T16:26:17;3.80;;;2.07;;
5225;SDS011;2632;51.666;7.146;2022-10-23T16:28:44;2.00;;;1.70;;
5225;SDS011;2632;51.666;7.146;2022-10-23T16:31:14;8.17;;;2.30;;
5225;SDS011;2632;51.666;7.146;2022-10-23T16:33:46;3.00;;;1.97;;
5225;SDS011;2632;51.666;7.146;2022-10-23T16:36:13;6.10;;;2.47;;
5225;SDS011;2632;51.666;7.146;2022-10-23T16:38:39;4.50;;;2.23;;
5225;SDS011;2632;51.666;7.146;2022-10-23T16:41:06;2.43;;;2.23;;
5225;SDS011;2632;51.666;7.146;2022-10-23T16:43:33;2.00;;;1.73;;
5225;SDS011;2632;51.666;7.146;2022-10-23T16:46:00;4.47;;;2.13;;
5225;SDS011;2632;51.666;7.146;2022-10-23T16:48:32;5.00;;;1.50;;
5225;SDS011;2632;51.666;7.146;2022-10-23T16:50:59;11.17;;;2.27;;
5225;SDS011;2632;51.666;7.146;2022-10-23T16:53:29;5.07;;;2.17;;
5225;SDS011;2632;51.666;7.146;2022-10-23T16:55:56;2.90;;;2.10;;
5225;SDS011;2632;51.666;7.146;2022-10-23T16:58:24;4.10;;;1.83;;
5225;SDS011;2632;51.666;7.146;2022-10-23T17:00:58;10.60;;;1.93;;
5225;SDS011;2632;51.666;7.146;2022-10-23T17:03:27;3.47;;;2.00;;
5225;SDS011;2632;51.666;7.146;2022-10-23T17:05:58;4.70;;;2.10;;
5225;SDS011;2632;51.666;7.146;2022-10-23T17:08:33;5.93;;;2.07;;
5225;SDS011;2632;51.666;7.146;2022-10-23T17:13:42;4.00;;;1.73;;
5225;SDS011;2632;51.666;7.146;2022-10-23T17:16:14;6.50;;;2.13;;